OOCL Hamburg — VRZK9 — position and weather

sailwx.info

Track history (hours):
 
Tides and Currents Weather Stations Pressure Air Temp Water Temp Dewpoint Dewpoint Depression Visibility Wind Speed Wind Dir Waves Ship Positions

OOCL Hamburg

Last reported at 2016-May-30 14:27 UTC. Time now 2016-May-30 22:11 UTC.
Position N 21°52' E 114°22'.

Length 323 m; beam 42.8 m; draft 14.5 m.

Type: Cargo ship. MMSI: 477702000.

Date/timePositionNaut miles runAvg speedWind from/ knotsBaromVisibWave heightAir tempDewpointWater temp
2016-May-30 14:27N 21°52' E 114°22'1717.9
2016-May-30 13:29N 22°09' E 114°26'27 1.2
2016-May-29 14:26N 22°34' E 114°16'17 1.6
2016-May-29 03:10N 22°22' E 114°29'810.2
2016-May-29 02:25N 22°14' E 114°28'10 9.5
2016-May-29 01:19N 22°07' E 114°20'16 8.9
2016-May-28 23:33N 22°17' E 114°06'1111.4
2016-May-28 22:33N 22°22' E 113°55'6 5.7
2016-May-28 21:33N 22°27' E 113°54'0 0.2
2016-May-28 20:21N 22°27' E 113°53'0 0.0
2016-May-28 19:33N 22°27' E 113°53'0 0.0
2016-May-28 17:33N 22°27' E 113°53'0 0.0
2016-May-28 16:21N 22°27' E 113°53'0 0.0
2016-May-28 15:33N 22°27' E 113°53'0 0.0
2016-May-28 13:33N 22°27' E 113°53'0 0.0
2016-May-28 12:21N 22°27' E 113°53'0 0.0
2016-May-28 11:21N 22°27' E 113°53'0 0.0
2016-May-28 09:27N 22°27' E 113°53'0 0.1
2016-May-28 08:27N 22°27' E 113°53'0 0.0
2016-May-28 06:33N 22°27' E 113°53'0 0.0
2016-May-28 04:33N 22°27' E 113°53'4 4.3
2016-May-28 03:32N 22°23' E 113°54'1010.4
2016-May-28 02:33N 22°20' E 114°05'1 1.3
2016-May-28 01:30N 22°19' E 114°05'0 0.0
2016-May-28 00:30N 22°19' E 114°05'0 0.0
2016-May-27 23:30N 22°19' E 114°05'0 0.2
2016-May-27 22:33N 22°19' E 114°05'0 0.2
2016-May-27 21:33N 22°19' E 114°05'0 0.1
2016-May-27 20:33N 22°19' E 114°05'0 0.1
2016-May-27 19:33N 22°19' E 114°05'0 0.1
2016-May-27 18:33N 22°19' E 114°05'0 0.0
2016-May-27 17:33N 22°19' E 114°05'0 0.0
2016-May-27 16:24N 22°19' E 114°05'0 0.1
2016-May-27 15:33N 22°19' E 114°05'0 0.1
2016-May-27 14:30N 22°19' E 114°05'0 0.2
2016-May-27 13:30N 22°19' E 114°05'2 2.4
2016-May-27 12:33N 22°20' E 114°07'1 1.0
2016-May-27 11:30N 22°21' E 114°07'0 0.0
2016-May-27 05:15N 22°21' E 114°07'0 0.0
2016-May-27 00:04N 22°21' E 114°07'0 0.5
2016-May-26 23:33N 22°21' E 114°07'8 7.4
2016-May-26 22:29N 22°13' E 114°10'9 9.4
2016-May-26 21:33N 22°08' E 114°17'9 9.0
2016-May-26 20:33N 22°01' E 114°24'  
Track history (hours):
 
Tides and Currents Weather Stations Pressure Air Temp Water Temp Dewpoint Dewpoint Depression Visibility Wind Speed Wind Dir Waves Ship Positions

OOCL Hamburg

Last reported at 2016-May-30 14:27 UTC. Time now 2016-May-30 22:11 UTC.
Position N 21°52' E 114°22'.

Length 323 m; beam 42.8 m; draft 14.5 m.

Type: Cargo ship. MMSI: 477702000.

Date/timePositionNaut miles runAvg speedWind from/ knotsBaromVisibWave heightAir tempDewpointWater temp
2016-May-30 14:27N 21°52' E 114°22'1717.9
2016-May-30 13:29N 22°09' E 114°26'27 1.2
2016-May-29 14:26N 22°34' E 114°16'17 1.6
2016-May-29 03:10N 22°22' E 114°29'810.2
2016-May-29 02:25N 22°14' E 114°28'10 9.5
2016-May-29 01:19N 22°07' E 114°20'16 8.9
2016-May-28 23:33N 22°17' E 114°06'1111.4
2016-May-28 22:33N 22°22' E 113°55'6 5.7
2016-May-28 21:33N 22°27' E 113°54'0 0.2
2016-May-28 20:21N 22°27' E 113°53'0 0.0
2016-May-28 19:33N 22°27' E 113°53'0 0.0
2016-May-28 17:33N 22°27' E 113°53'0 0.0
2016-May-28 16:21N 22°27' E 113°53'0 0.0
2016-May-28 15:33N 22°27' E 113°53'0 0.0
2016-May-28 13:33N 22°27' E 113°53'0 0.0
2016-May-28 12:21N 22°27' E 113°53'0 0.0
2016-May-28 11:21N 22°27' E 113°53'0 0.0
2016-May-28 09:27N 22°27' E 113°53'0 0.1
2016-May-28 08:27N 22°27' E 113°53'0 0.0
2016-May-28 06:33N 22°27' E 113°53'0 0.0
2016-May-28 04:33N 22°27' E 113°53'4 4.3
2016-May-28 03:32N 22°23' E 113°54'1010.4
2016-May-28 02:33N 22°20' E 114°05'1 1.3
2016-May-28 01:30N 22°19' E 114°05'0 0.0
2016-May-28 00:30N 22°19' E 114°05'0 0.0
2016-May-27 23:30N 22°19' E 114°05'0 0.2
2016-May-27 22:33N 22°19' E 114°05'0 0.2
2016-May-27 21:33N 22°19' E 114°05'0 0.1
2016-May-27 20:33N 22°19' E 114°05'0 0.1
2016-May-27 19:33N 22°19' E 114°05'0 0.1
2016-May-27 18:33N 22°19' E 114°05'0 0.0
2016-May-27 17:33N 22°19' E 114°05'0 0.0
2016-May-27 16:24N 22°19' E 114°05'0 0.1
2016-May-27 15:33N 22°19' E 114°05'0 0.1
2016-May-27 14:30N 22°19' E 114°05'0 0.2
2016-May-27 13:30N 22°19' E 114°05'2 2.4
2016-May-27 12:33N 22°20' E 114°07'1 1.0
2016-May-27 11:30N 22°21' E 114°07'0 0.0
2016-May-27 05:15N 22°21' E 114°07'0 0.0
2016-May-27 00:04N 22°21' E 114°07'0 0.5
2016-May-26 23:33N 22°21' E 114°07'8 7.4
2016-May-26 22:29N 22°13' E 114°10'9 9.4
2016-May-26 21:33N 22°08' E 114°17'9 9.0
2016-May-26 20:33N 22°01' E 114°24'  

Dump ship's entire track history